createdAt,value
2022-12-17T00:01:51.279Z,65.12
2022-12-17T00:04:37.955Z,64.39
2022-12-17T00:07:23.522Z,65.15
2022-12-17T00:10:08.870Z,65.16
2022-12-17T00:12:56.475Z,65.25
2022-12-17T00:15:42.977Z,65.15
2022-12-17T00:18:30.705Z,65.42
2022-12-17T00:21:18.514Z,65.91
2022-12-17T00:24:05.230Z,65.44
2022-12-17T00:26:51.444Z,66.15
2022-12-17T00:29:37.882Z,66.19
2022-12-17T00:32:24.028Z,65.53
2022-12-17T00:35:10.062Z,65.75
2022-12-17T00:37:55.881Z,65.74
2022-12-17T00:40:42.743Z,66.21
2022-12-17T00:43:32.043Z,65.91
2022-12-17T00:46:18.069Z,66.05
2022-12-17T00:49:04.239Z,66.37
2022-12-17T00:51:49.889Z,66.53
2022-12-17T00:54:35.683Z,66.50
2022-12-17T00:57:21.716Z,66.61
2022-12-17T01:00:07.316Z,66.55
2022-12-17T01:02:53.017Z,66.57
2022-12-17T01:05:39.525Z,66.37
2022-12-17T01:08:30.507Z,66.56
2022-12-17T01:11:26.651Z,65.82
2022-12-17T01:14:12.646Z,65.58
2022-12-17T01:16:58.256Z,66.12
2022-12-17T01:19:43.895Z,66.10
2022-12-17T01:22:29.576Z,66.57
2022-12-17T01:25:15.172Z,66.38
2022-12-17T01:28:00.805Z,66.99
2022-12-17T01:30:46.582Z,66.88
2022-12-17T01:33:32.293Z,66.66
2022-12-17T01:36:17.770Z,66.22
2022-12-17T01:39:03.597Z,65.96
2022-12-17T01:41:49.083Z,66.22
2022-12-17T01:45:02.394Z,66.02
2022-12-17T01:48:04.411Z,65.76
2022-12-17T01:50:55.496Z,66.58
2022-12-17T01:53:45.012Z,65.63
2022-12-17T01:56:31.129Z,65.45
2022-12-17T01:59:17.803Z,65.61
2022-12-17T02:02:03.462Z,65.49
2022-12-17T02:04:49.966Z,65.92
2022-12-17T02:07:54.401Z,65.36
2022-12-17T02:10:52.721Z,65.89
2022-12-17T02:13:48.933Z,66.16
2022-12-17T02:16:55.033Z,66.04
2022-12-17T02:20:18.707Z,65.50
2022-12-17T02:23:22.681Z,65.79
2022-12-17T02:26:22.871Z,65.97
2022-12-17T02:29:11.145Z,65.80
2022-12-17T02:32:01.310Z,66.05
2022-12-17T02:34:48.271Z,66.28
2022-12-17T02:37:33.703Z,66.26
2022-12-17T02:40:19.424Z,65.85
2022-12-17T02:43:08.166Z,66.50
2022-12-17T02:45:56.342Z,66.53
2022-12-17T02:48:43.460Z,67.22
2022-12-17T02:51:29.328Z,67.30
2022-12-17T02:54:14.873Z,67.51
2022-12-17T02:57:00.496Z,66.85
2022-12-17T02:59:46.160Z,67.84
2022-12-17T03:02:35.145Z,67.67
2022-12-17T03:05:44.065Z,67.77
2022-12-17T03:08:26.771Z,67.56
2022-12-17T03:11:12.463Z,66.93
2022-12-17T03:13:57.945Z,67.48
2022-12-17T03:16:43.748Z,67.01
2022-12-17T03:19:29.302Z,67.03
2022-12-17T03:22:14.993Z,67.41
2022-12-17T03:25:00.540Z,66.98
2022-12-17T03:27:45.964Z,66.93
2022-12-17T03:30:35.674Z,66.94
2022-12-17T03:33:22.292Z,67.88
2022-12-17T03:36:12.472Z,68.15
2022-12-17T03:39:21.108Z,68.25
2022-12-17T03:42:06.791Z,67.85
2022-12-17T03:44:52.528Z,67.74
2022-12-17T03:47:38.266Z,68.12
2022-12-17T03:50:24.310Z,68.13
2022-12-17T03:53:10.064Z,68.16
2022-12-17T03:55:55.550Z,67.73
2022-12-17T03:58:41.301Z,68.20
2022-12-17T04:01:26.890Z,68.47
2022-12-17T04:04:12.668Z,67.96
2022-12-17T04:06:58.119Z,67.90
2022-12-17T04:09:43.584Z,68.33
2022-12-17T04:12:29.240Z,68.35
2022-12-17T04:15:14.645Z,67.82
2022-12-17T04:18:00.397Z,67.92
2022-12-17T04:20:46.017Z,68.15
2022-12-17T04:23:31.731Z,68.08
2022-12-17T04:26:17.587Z,68.22
2022-12-17T04:29:03.157Z,68.01
2022-12-17T04:31:48.541Z,67.57
2022-12-17T04:34:33.897Z,67.55
2022-12-17T04:37:19.480Z,67.76
2022-12-17T04:40:05.000Z,68.15
2022-12-17T04:42:50.579Z,67.31
2022-12-17T04:45:36.126Z,67.85
2022-12-17T04:48:24.257Z,67.30
2022-12-17T04:51:09.993Z,67.41
2022-12-17T04:53:55.703Z,67.92
2022-12-17T04:56:41.534Z,67.30
2022-12-17T04:59:27.030Z,67.74
2022-12-17T05:02:12.573Z,67.99
2022-12-17T05:04:58.315Z,68.23
2022-12-17T05:07:43.776Z,67.88
2022-12-17T05:10:29.317Z,67.91
2022-12-17T05:13:18.698Z,68.12
2022-12-17T05:16:05.094Z,67.95
2022-12-17T05:18:51.139Z,68.48
2022-12-17T05:21:36.713Z,68.90
2022-12-17T05:24:22.272Z,68.63
2022-12-17T05:27:08.158Z,69.07
2022-12-17T05:29:53.590Z,69.02
2022-12-17T05:32:39.111Z,68.34
2022-12-17T05:35:25.027Z,69.11
2022-12-17T05:38:10.914Z,68.31
2022-12-17T05:40:56.473Z,68.62
2022-12-17T05:43:42.058Z,68.92
2022-12-17T05:46:27.600Z,68.47
2022-12-17T05:49:13.221Z,69.16
2022-12-17T05:51:58.934Z,68.94
2022-12-17T05:54:44.610Z,69.43
2022-12-17T05:57:30.197Z,69.46
2022-12-17T06:00:15.823Z,69.40
2022-12-17T06:03:01.487Z,69.16
2022-12-17T06:05:47.435Z,68.78
2022-12-17T06:08:33.066Z,68.98
2022-12-17T06:11:18.989Z,69.15
2022-12-17T06:14:06.107Z,69.13
2022-12-17T06:16:51.651Z,69.05
2022-12-17T06:19:37.225Z,69.45
2022-12-17T06:22:22.995Z,69.05
2022-12-17T06:25:08.483Z,69.67
2022-12-17T06:27:54.178Z,68.90
2022-12-17T06:30:39.765Z,69.63
2022-12-17T06:33:27.376Z,69.92
2022-12-17T06:36:19.701Z,71.19
2022-12-17T06:39:07.221Z,70.12
2022-12-17T06:41:52.772Z,69.78
2022-12-17T06:44:40.323Z,69.77
2022-12-17T06:47:26.076Z,69.55
2022-12-17T06:50:11.879Z,69.32
2022-12-17T06:52:57.311Z,69.95
2022-12-17T06:55:42.723Z,69.65
2022-12-17T06:58:28.689Z,70.17
2022-12-17T07:01:14.375Z,69.61
2022-12-17T07:04:01.088Z,69.76
2022-12-17T07:06:46.594Z,69.89
2022-12-17T07:09:32.044Z,69.88
2022-12-17T07:12:17.798Z,70.30
2022-12-17T07:15:03.319Z,69.73
2022-12-17T07:17:50.405Z,70.28
2022-12-17T07:20:36.108Z,69.75
2022-12-17T07:23:21.842Z,69.57
2022-12-17T07:39:39.017Z,69.10
2022-12-17T07:42:24.641Z,68.89
2022-12-17T07:45:10.303Z,69.38
2022-12-17T07:47:55.918Z,69.34
2022-12-17T07:50:41.372Z,69.23
2022-12-17T07:53:27.145Z,69.29
2022-12-17T07:56:12.838Z,69.32
2022-12-17T07:58:58.443Z,69.60
2022-12-17T08:01:44.251Z,69.59
2022-12-17T08:04:29.872Z,70.05
2022-12-17T08:07:15.579Z,69.56
2022-12-17T08:10:01.338Z,69.19
2022-12-17T08:12:47.063Z,69.09
2022-12-17T08:15:32.738Z,69.10
2022-12-17T08:31:10.474Z,67.66
2022-12-17T08:33:55.947Z,68.12
2022-12-17T08:36:41.598Z,67.68
2022-12-17T08:39:27.407Z,67.78
2022-12-17T08:42:13.040Z,68.29
2022-12-17T08:44:58.414Z,68.09
2022-12-17T08:47:44.246Z,68.33
2022-12-17T08:50:29.942Z,68.38
2022-12-17T08:53:23.145Z,68.38
2022-12-17T08:56:08.817Z,68.88
2022-12-17T08:58:59.147Z,67.97
2022-12-17T09:01:44.879Z,68.49
2022-12-17T09:04:30.665Z,67.70
2022-12-17T09:07:36.428Z,67.55
2022-12-17T09:10:22.837Z,67.96
2022-12-17T09:13:08.637Z,68.25
2022-12-17T09:15:54.366Z,68.22
2022-12-17T09:18:41.084Z,68.33
2022-12-17T09:21:26.855Z,68.04
2022-12-17T09:24:12.604Z,67.88
2022-12-17T09:26:58.284Z,68.64
2022-12-17T09:29:43.951Z,68.35
2022-12-17T09:32:29.610Z,67.75
2022-12-17T09:35:15.255Z,68.24
2022-12-17T09:38:00.811Z,67.72
2022-12-17T09:40:48.654Z,68.07
2022-12-17T09:43:50.632Z,67.85
2022-12-17T09:46:45.359Z,67.69
2022-12-17T09:49:38.797Z,67.92
2022-12-17T09:53:02.893Z,68.21
2022-12-17T09:55:53.386Z,67.37
2022-12-17T09:58:44.674Z,67.78
2022-12-17T10:01:36.402Z,66.83
2022-12-17T10:04:33.534Z,67.35
2022-12-17T10:07:20.700Z,67.52
2022-12-17T10:10:10.268Z,67.69
2022-12-17T10:12:55.975Z,67.43
2022-12-17T10:15:41.646Z,67.89
2022-12-17T10:18:31.042Z,67.05
2022-12-17T10:21:29.703Z,67.16
2022-12-17T10:24:26.082Z,67.60
2022-12-17T10:27:11.774Z,67.75
2022-12-17T10:29:59.970Z,67.70
2022-12-17T10:32:46.781Z,68.00
2022-12-17T10:35:53.172Z,67.38
2022-12-17T10:38:49.664Z,67.55
2022-12-17T10:41:49.821Z,67.81
2022-12-17T10:44:52.515Z,67.89
2022-12-17T10:47:40.593Z,67.17
2022-12-17T10:50:31.115Z,67.49
2022-12-17T10:53:17.566Z,67.86
2022-12-17T15:04:05.904Z,75.04
2022-12-17T15:06:32.901Z,70.58
2022-12-17T15:08:59.872Z,67.79
2022-12-17T15:11:26.854Z,68.66
2022-12-17T15:13:56.536Z,68.68
2022-12-17T15:16:24.445Z,69.65
2022-12-17T15:18:51.471Z,69.52
2022-12-17T15:21:19.707Z,70.66
2022-12-17T15:23:47.843Z,70.24
2022-12-17T15:26:15.417Z,70.45
2022-12-17T15:28:42.996Z,70.26
2022-12-17T15:31:12.576Z,70.45
2022-12-17T15:33:40.350Z,70.62
2022-12-17T15:36:08.176Z,71.14
2022-12-17T15:38:35.474Z,71.01
2022-12-17T15:41:24.252Z,70.95
2022-12-17T15:43:51.281Z,71.35
2022-12-17T15:46:18.629Z,71.28
2022-12-17T15:48:50.083Z,71.01
2022-12-17T15:51:19.748Z,70.85
2022-12-17T15:53:48.199Z,71.28
2022-12-17T15:56:25.789Z,71.73
2022-12-17T15:58:53.440Z,71.22
2022-12-17T16:01:20.570Z,71.08
2022-12-17T16:03:47.719Z,70.97
2022-12-17T16:06:17.943Z,71.26
2022-12-17T16:08:45.081Z,71.55
2022-12-17T16:11:14.347Z,70.80
2022-12-17T16:13:41.406Z,71.31
2022-12-17T16:16:09.030Z,70.58
2022-12-17T16:18:38.732Z,70.89
2022-12-17T16:21:07.838Z,70.33
2022-12-17T16:23:35.730Z,70.92
2022-12-17T16:26:04.964Z,70.44
2022-12-17T16:28:32.423Z,70.71
2022-12-17T16:31:08.228Z,70.89
2022-12-17T16:33:37.690Z,71.05
2022-12-17T16:36:06.543Z,70.50
2022-12-17T16:38:34.191Z,70.68
2022-12-17T16:41:03.386Z,70.42
2022-12-17T16:43:34.636Z,70.81
2022-12-17T16:46:02.677Z,70.87
2022-12-17T16:48:37.583Z,70.23
2022-12-17T16:51:26.545Z,70.16
2022-12-17T16:53:56.018Z,70.46
2022-12-17T16:56:26.302Z,70.70
2022-12-17T16:58:54.037Z,70.59
2022-12-17T17:01:22.743Z,71.15
2022-12-17T17:03:50.427Z,71.15
2022-12-17T17:06:18.984Z,71.30
2022-12-17T17:08:46.536Z,70.69
2022-12-17T17:11:21.329Z,71.22
2022-12-17T17:13:54.192Z,71.18
2022-12-17T17:16:24.308Z,70.90
2022-12-17T17:18:52.330Z,70.27
2022-12-17T17:21:19.223Z,70.44
2022-12-17T17:23:48.024Z,70.30
2022-12-17T17:26:16.194Z,70.94
2022-12-17T17:28:44.771Z,70.99
2022-12-17T17:31:14.036Z,71.04
2022-12-17T17:33:44.577Z,70.84
2022-12-17T17:36:13.928Z,70.97
2022-12-17T17:38:41.857Z,70.60
2022-12-17T17:41:11.630Z,71.77
2022-12-17T17:43:39.484Z,72.13
2022-12-17T17:46:14.080Z,71.88
2022-12-17T17:48:42.624Z,72.53
2022-12-17T17:51:38.960Z,71.87
2022-12-17T17:54:14.231Z,71.80
2022-12-17T17:56:42.406Z,72.28
2022-12-17T17:59:15.974Z,72.02
2022-12-17T18:01:46.327Z,72.69
2022-12-17T18:04:16.938Z,72.64
2022-12-17T18:07:02.787Z,72.95
2022-12-17T18:09:32.663Z,73.14
2022-12-17T18:12:19.513Z,73.03
2022-12-17T18:15:12.159Z,72.60
2022-12-17T18:17:33.462Z,72.97
2022-12-17T18:20:00.474Z,72.60
2022-12-17T18:22:28.512Z,72.57
2022-12-17T18:24:55.493Z,72.80
2022-12-17T18:27:22.686Z,72.02
2022-12-17T18:29:49.671Z,71.93
2022-12-17T18:32:16.732Z,72.30
2022-12-17T18:34:43.792Z,72.18
2022-12-17T18:37:10.901Z,72.03
2022-12-17T18:39:38.217Z,72.17
2022-12-17T18:42:23.989Z,72.36
2022-12-17T18:44:51.057Z,72.14
2022-12-17T18:47:19.085Z,71.92
2022-12-17T18:49:46.152Z,71.52
2022-12-17T18:52:16.777Z,71.98
2022-12-17T18:54:45.483Z,71.71
2022-12-17T18:57:12.458Z,71.63
2022-12-17T18:59:41.132Z,71.26
2022-12-17T19:02:12.887Z,71.66
2022-12-17T19:04:40.703Z,71.43
2022-12-17T19:07:07.684Z,71.67
2022-12-17T19:09:35.829Z,72.13
2022-12-17T19:12:04.849Z,72.15
2022-12-17T19:14:32.054Z,72.09
2022-12-17T19:16:59.978Z,72.29
2022-12-17T19:19:27.429Z,71.81
2022-12-17T19:21:55.442Z,72.62
2022-12-17T19:24:23.042Z,72.20
2022-12-17T19:26:51.109Z,72.72
2022-12-17T19:29:20.560Z,73.00
2022-12-17T19:31:48.540Z,72.71
2022-12-17T19:34:17.466Z,72.46
2022-12-17T19:36:45.233Z,73.20
2022-12-17T19:39:17.607Z,72.78
2022-12-17T19:41:45.235Z,72.63
2022-12-17T19:44:14.545Z,72.44
2022-12-17T19:46:41.916Z,72.54
2022-12-17T19:49:12.023Z,72.60
2022-12-17T19:51:44.506Z,72.14
2022-12-17T19:54:15.539Z,72.15
2022-12-17T19:56:44.906Z,72.47
2022-12-17T19:59:12.973Z,72.49
2022-12-17T20:01:45.814Z,71.94
2022-12-17T20:04:14.545Z,72.05
2022-12-17T20:06:43.007Z,72.28
2022-12-17T20:09:10.582Z,72.44
2022-12-17T20:11:37.603Z,72.45
2022-12-17T20:14:10.606Z,72.26
2022-12-17T20:16:43.369Z,71.73
2022-12-17T20:19:19.673Z,72.17
2022-12-17T20:21:47.515Z,71.91
2022-12-17T20:24:15.335Z,72.14
2022-12-17T20:26:43.407Z,72.09
2022-12-17T20:29:10.544Z,71.82
2022-12-17T20:31:38.932Z,71.63
2022-12-17T20:34:08.247Z,71.78
2022-12-17T20:36:35.971Z,71.93
2022-12-17T20:39:03.474Z,71.83
2022-12-17T20:41:31.943Z,71.89
2022-12-17T20:44:13.181Z,72.12
2022-12-17T20:46:43.859Z,71.81
2022-12-17T20:49:13.098Z,72.39
2022-12-17T20:51:40.588Z,72.33
2022-12-17T20:54:08.550Z,72.16
2022-12-17T20:56:36.319Z,72.43
2022-12-17T20:59:06.624Z,72.39
2022-12-17T21:01:36.052Z,72.31
2022-12-17T21:04:04.044Z,72.22
2022-12-17T21:06:38.110Z,72.50
2022-12-17T21:09:05.571Z,72.47
2022-12-17T21:11:35.003Z,72.97
2022-12-17T21:14:10.314Z,72.10
2022-12-17T21:16:39.278Z,72.84
2022-12-17T21:19:08.115Z,72.60
2022-12-17T21:21:37.798Z,72.22
2022-12-17T21:24:05.636Z,73.16
2022-12-17T21:26:35.411Z,72.44
2022-12-17T21:29:04.321Z,72.79
2022-12-17T21:31:40.844Z,73.05
2022-12-17T21:34:12.774Z,72.34
2022-12-17T21:36:39.806Z,72.38
2022-12-17T21:39:08.793Z,72.15
2022-12-17T21:41:43.659Z,72.96
2022-12-17T21:44:15.411Z,72.53
2022-12-17T21:46:48.913Z,72.73
2022-12-17T21:49:18.200Z,72.34
2022-12-17T21:51:45.395Z,72.57
2022-12-17T21:54:17.308Z,73.27
2022-12-17T21:56:46.699Z,72.36
2022-12-17T21:59:13.718Z,72.47
2022-12-17T22:01:40.818Z,72.75
2022-12-17T22:04:07.998Z,72.80
2022-12-17T22:06:44.682Z,72.87
2022-12-17T22:09:27.897Z,72.67
2022-12-17T22:12:22.937Z,72.23
2022-12-17T22:14:49.990Z,72.80
2022-12-17T22:17:16.942Z,72.80
2022-12-17T22:19:43.888Z,73.01
2022-12-17T22:22:10.980Z,72.54
2022-12-17T22:24:37.975Z,73.01
2022-12-17T22:27:05.105Z,72.81
2022-12-17T22:29:55.189Z,72.76
2022-12-17T22:32:41.049Z,72.87
2022-12-17T22:36:18.992Z,72.94
2022-12-17T22:40:15.932Z,73.32
2022-12-17T22:44:33.308Z,73.51
2022-12-17T22:44:37.715Z,72.70
2022-12-17T22:46:20.363Z,72.43
2022-12-17T22:48:47.598Z,72.56
2022-12-17T22:51:16.281Z,72.84
2022-12-17T22:53:54.941Z,72.97
2022-12-17T22:56:41.531Z,72.86
2022-12-17T22:59:16.851Z,73.29
2022-12-17T23:01:44.764Z,72.92
2022-12-17T23:04:13.869Z,73.23
2022-12-17T23:06:41.914Z,73.07
2022-12-17T23:09:08.904Z,73.51
2022-12-17T23:11:35.902Z,73.30
2022-12-17T23:14:03.340Z,73.52
2022-12-17T23:16:30.443Z,73.66
2022-12-17T23:19:01.063Z,73.49
2022-12-17T23:21:28.631Z,73.02
2022-12-17T23:23:57.164Z,73.77
2022-12-17T23:26:30.111Z,74.00
2022-12-17T23:29:03.223Z,73.85
2022-12-17T23:31:35.437Z,75.26
2022-12-17T23:34:03.485Z,74.71
2022-12-17T23:36:30.502Z,74.06
2022-12-17T23:38:57.683Z,74.33
2022-12-17T23:41:28.322Z,74.52
2022-12-17T23:43:55.763Z,74.62
2022-12-17T23:46:25.213Z,74.65
2022-12-17T23:48:52.304Z,75.14
2022-12-17T23:51:21.799Z,75.13
2022-12-17T23:53:49.236Z,74.91
2022-12-17T23:56:23.303Z,74.92
2022-12-17T23:58:53.810Z,75.04
